Time;durP1;ratioP1;P1;durP2;ratioP2;P2;SDS_P1;SDS_P2;PMS_P1;PMS_P2;Temp;Humidity;BMP_temperature;BMP_pressure;BME280_temperature;BME280_humidity;BME280_pressure;Samples;Min_cycle;Max_cycle;Signal;HPM_P1;HPM_P2
2023/08/21 00:01:47;;;;;;;3.47;1.90;;;15.70;99.90;;;;;;4813840;29;20048;-83
2023/08/21 00:04:12;;;;;;;1.88;1.17;;;15.60;99.90;;;;;;4832598;29;20409;-84
2023/08/21 00:06:38;;;;;;;3.85;1.80;;;15.60;99.90;;;;;;4842057;29;20052;-85
2023/08/21 00:09:04;;;;;;;2.72;1.48;;;15.60;99.90;;;;;;4834858;29;20041;-86
2023/08/21 00:11:29;;;;;;;2.95;1.40;;;15.60;99.90;;;;;;4829099;29;20067;-86
2023/08/21 00:13:55;;;;;;;3.33;1.55;;;15.60;99.90;;;;;;4799400;29;20060;-87
2023/08/21 00:16:21;;;;;;;4.65;1.85;;;15.60;99.90;;;;;;4844131;29;20160;-87
2023/08/21 00:18:47;;;;;;;2.70;1.42;;;15.60;99.90;;;;;;4836833;29;20050;-86
2023/08/21 00:21:12;;;;;;;2.95;1.40;;;15.60;99.90;;;;;;4843102;29;20068;-86
2023/08/21 00:23:38;;;;;;;2.42;1.13;;;15.60;99.90;;;;;;4813203;29;20045;-86
2023/08/21 00:26:04;;;;;;;2.55;0.90;;;15.60;99.90;;;;;;4828065;29;20494;-87
2023/08/21 00:28:32;;;;;;;2.20;1.05;;;15.60;99.90;;;;;;4845404;29;20050;-88
2023/08/21 00:31:02;;;;;;;1.48;0.60;;;15.60;99.90;;;;;;4815642;29;20061;-86
2023/08/21 00:33:30;;;;;;;1.17;0.52;;;15.60;99.90;;;;;;4845207;29;20056;-86
2023/08/21 00:35:56;;;;;;;1.90;0.80;;;15.50;99.90;;;;;;4830941;29;20041;-86
2023/08/21 00:38:22;;;;;;;2.05;0.80;;;15.50;99.90;;;;;;4829304;29;20460;-86
2023/08/21 00:40:48;;;;;;;3.70;1.27;;;15.50;99.90;;;;;;4802439;29;20042;-87
2023/08/21 00:43:14;;;;;;;2.38;0.70;;;15.50;99.90;;;;;;4838214;29;20536;-86
2023/08/21 00:45:42;;;;;;;1.55;0.68;;;15.40;99.90;;;;;;4842380;29;20049;-87
2023/08/21 00:48:09;;;;;;;1.38;0.30;;;15.40;99.90;;;;;;4826655;29;20046;-86
2023/08/21 00:50:35;;;;;;;0.75;0.20;;;15.30;99.90;;;;;;4818101;29;20052;-87
2023/08/21 00:53:02;;;;;;;3.17;0.60;;;15.30;99.90;;;;;;4826136;29;20049;-87
2023/08/21 00:55:29;;;;;;;3.20;0.70;;;15.20;99.90;;;;;;4847557;29;20057;-86
2023/08/21 00:57:55;;;;;;;3.55;1.13;;;15.20;99.90;;;;;;4840421;29;20100;-85
2023/08/21 01:00:22;;;;;;;2.88;0.98;;;15.20;99.90;;;;;;4849451;29;20128;-86
2023/08/21 01:02:48;;;;;;;1.73;0.80;;;15.20;99.90;;;;;;4847727;29;20079;-87
2023/08/21 01:05:14;;;;;;;0.50;0.40;;;15.20;99.90;;;;;;4809735;29;20042;-86
2023/08/21 01:07:53;;;;;;;1.45;0.60;;;15.20;99.90;;;;;;4796291;29;20048;-86
2023/08/21 01:10:29;;;;;;;0.60;0.50;;;15.20;99.90;;;;;;4842079;29;20132;-87
2023/08/21 01:13:09;;;;;;;1.40;0.70;;;15.20;99.90;;;;;;4827750;29;20068;-85
2023/08/21 01:15:36;;;;;;;1.67;0.90;;;15.20;99.90;;;;;;4829441;29;20726;-85
2023/08/21 01:18:02;;;;;;;;;;;15.20;99.90;;;;;;4818910;29;20049;-86
2023/08/21 01:20:29;;;;;;;1.48;0.82;;;15.20;99.90;;;;;;4828451;29;19924;-87
2023/08/21 01:22:54;;;;;;;2.90;1.03;;;15.20;99.90;;;;;;4826847;29;20038;-88
2023/08/21 01:25:20;;;;;;;2.40;1.20;;;15.20;99.90;;;;;;4842232;29;20745;-87
2023/08/21 01:27:49;;;;;;;1.35;0.85;;;15.20;99.90;;;;;;4828008;29;20120;-88
2023/08/21 01:30:16;;;;;;;1.85;1.00;;;15.20;99.90;;;;;;4810855;29;20707;-87
2023/08/21 01:32:47;;;;;;;0.85;0.75;;;15.20;99.90;;;;;;4820122;29;20100;-88
2023/08/21 01:35:14;;;;;;;0.70;0.70;;;15.20;99.90;;;;;;4822948;29;20053;-88
2023/08/21 01:37:41;;;;;;;3.83;1.20;;;15.20;99.90;;;;;;4817012;29;20049;-88
2023/08/21 01:40:08;;;;;;;2.08;0.95;;;15.10;99.90;;;;;;4844896;29;20120;-88
2023/08/21 01:42:33;;;;;;;2.53;0.97;;;15.10;99.90;;;;;;4817774;29;20060;-88
2023/08/21 01:44:59;;;;;;;1.60;0.73;;;15.00;99.90;;;;;;4845061;29;20050;-88
2023/08/21 01:47:25;;;;;;;1.42;0.63;;;15.00;99.90;;;;;;4817699;29;20048;-88
2023/08/21 01:49:53;;;;;;;1.35;0.80;;;14.90;99.90;;;;;;4847611;29;20045;-88
2023/08/21 01:52:21;;;;;;;1.17;0.40;;;14.90;99.90;;;;;;4836915;29;20398;-88
2023/08/21 01:54:49;;;;;;;2.47;0.68;;;14.90;99.90;;;;;;4836113;29;20049;-89
2023/08/21 01:57:15;;;;;;;2.60;0.93;;;14.80;99.90;;;;;;4827465;29;20102;-88
2023/08/21 01:59:40;;;;;;;4.20;1.30;;;14.80;99.90;;;;;;4795028;29;20053;-87
2023/08/21 02:02:06;;;;;;;3.10;0.95;;;14.80;99.90;;;;;;4801444;29;20188;-88
2023/08/21 02:04:32;;;;;;;0.73;0.60;;;14.80;99.90;;;;;;4830486;29;20044;-86
2023/08/21 02:06:57;;;;;;;1.00;0.60;;;14.80;99.90;;;;;;4821352;29;20039;-87
2023/08/21 02:09:23;;;;;;;1.27;0.70;;;14.70;99.90;;;;;;4831065;29;20045;-87
2023/08/21 02:11:49;;;;;;;1.60;0.90;;;14.70;99.90;;;;;;4847248;29;20053;-88
2023/08/21 02:14:14;;;;;;;1.30;0.70;;;14.70;99.90;;;;;;4819335;29;20082;-89
2023/08/21 02:16:40;;;;;;;1.20;0.88;;;14.70;99.90;;;;;;4815861;29;20851;-88
2023/08/21 02:19:06;;;;;;;2.35;0.88;;;14.70;99.90;;;;;;4845971;29;20072;-88
2023/08/21 02:21:32;;;;;;;1.58;0.80;;;14.70;99.90;;;;;;4817712;29;20037;-87
2023/08/21 02:23:57;;;;;;;1.33;0.70;;;14.70;99.90;;;;;;4827234;29;20409;-89
2023/08/21 02:26:23;;;;;;;2.40;0.80;;;14.70;99.90;;;;;;4807483;29;20037;-90
2023/08/21 02:28:49;;;;;;;1.50;0.63;;;14.70;99.90;;;;;;4852953;29;20053;-90
2023/08/21 02:31:15;;;;;;;1.00;0.60;;;14.70;99.90;;;;;;4840392;29;20045;-90
2023/08/21 02:33:40;;;;;;;1.52;0.80;;;14.70;99.90;;;;;;4831218;29;20386;-90
2023/08/21 02:36:07;;;;;;;1.05;0.70;;;14.70;99.90;;;;;;4809263;29;20633;-89
2023/08/21 02:38:33;;;;;;;1.13;0.70;;;14.70;99.90;;;;;;4846630;29;20046;-87
2023/08/21 02:40:58;;;;;;;1.30;0.73;;;14.70;99.90;;;;;;4829972;29;20093;-87
2023/08/21 02:43:24;;;;;;;4.15;0.70;;;14.70;99.90;;;;;;4837054;29;20129;-87
2023/08/21 02:45:50;;;;;;;3.28;0.40;;;14.70;99.90;;;;;;4817150;29;20189;-87
2023/08/21 02:48:16;;;;;;;0.63;0.40;;;14.70;99.90;;;;;;4817657;29;20052;-88
2023/08/21 02:50:41;;;;;;;0.70;0.50;;;14.70;99.90;;;;;;4799922;29;20049;-89
2023/08/21 02:53:07;;;;;;;0.60;0.40;;;14.70;99.90;;;;;;4827622;29;20501;-90
2023/08/21 02:55:33;;;;;;;1.63;0.40;;;14.60;99.90;;;;;;4822645;29;20611;-89
2023/08/21 02:57:59;;;;;;;1.10;0.70;;;14.70;99.90;;;;;;4832003;29;20077;-88
2023/08/21 03:00:24;;;;;;;0.98;0.80;;;14.70;99.90;;;;;;4831134;29;20588;-89
2023/08/21 03:02:50;;;;;;;1.17;0.93;;;14.70;99.90;;;;;;4849929;29;20124;-90
2023/08/21 03:05:16;;;;;;;4.07;1.77;;;14.70;99.90;;;;;;4828496;29;20129;-90
2023/08/21 03:07:42;;;;;;;1.48;1.05;;;14.70;99.90;;;;;;4830240;29;20070;-88
2023/08/21 03:10:08;;;;;;;3.17;1.50;;;14.80;99.90;;;;;;4840343;29;20077;-89
2023/08/21 03:12:34;;;;;;;2.85;1.58;;;14.80;99.90;;;;;;4815497;29;20045;-87
2023/08/21 03:15:00;;;;;;;2.15;1.08;;;14.80;99.90;;;;;;4830896;29;20109;-88
2023/08/21 03:17:26;;;;;;;2.65;1.50;;;14.80;99.90;;;;;;4830309;29;20937;-89
2023/08/21 03:19:51;;;;;;;2.53;1.55;;;14.80;99.90;;;;;;4834731;29;20416;-86
2023/08/21 03:22:17;;;;;;;3.38;1.88;;;14.80;99.90;;;;;;4832485;29;20037;-88
2023/08/21 03:24:43;;;;;;;4.93;2.30;;;14.70;99.90;;;;;;4839000;29;20045;-87
2023/08/21 03:27:08;;;;;;;5.65;2.92;;;14.70;99.90;;;;;;4806025;29;20045;-89
2023/08/21 03:29:34;;;;;;;6.45;2.88;;;14.70;99.90;;;;;;4807512;29;20072;-90
2023/08/21 03:32:00;;;;;;;15.80;2.53;;;14.70;99.90;;;;;;4834737;29;20724;-91
2023/08/21 03:34:25;;;;;;;3.72;2.20;;;14.60;99.90;;;;;;4801599;29;20046;-89
2023/08/21 03:36:51;;;;;;;6.53;2.00;;;14.60;99.90;;;;;;4830668;29;20042;-89
2023/08/21 03:39:17;;;;;;;10.80;1.92;;;14.60;99.90;;;;;;4814450;29;20177;-88
2023/08/21 03:41:43;;;;;;;8.50;1.52;;;14.60;99.90;;;;;;4830278;29;20041;-88
2023/08/21 03:44:08;;;;;;;6.63;1.45;;;14.50;99.90;;;;;;4832837;29;20049;-88
2023/08/21 03:46:34;;;;;;;4.07;1.65;;;14.50;99.90;;;;;;4830479;29;20125;-89
2023/08/21 03:49:00;;;;;;;8.82;2.08;;;14.40;99.90;;;;;;4839673;29;20517;-89
2023/08/21 03:51:25;;;;;;;13.25;1.95;;;14.40;99.90;;;;;;4831148;29;20057;-89
2023/08/21 03:53:51;;;;;;;25.30;2.72;;;14.30;99.90;;;;;;4808572;29;20045;-89
2023/08/21 03:56:18;;;;;;;16.67;2.10;;;14.20;99.90;;;;;;4815646;29;20061;-88
2023/08/21 03:58:44;;;;;;;22.48;2.00;;;14.20;99.90;;;;;;4826194;29;20101;-89
2023/08/21 04:01:10;;;;;;;4.07;1.60;;;14.10;99.90;;;;;;4800922;29;20046;-88
2023/08/21 04:03:35;;;;;;;17.67;2.28;;;14.10;99.90;;;;;;4816503;29;20061;-88
2023/08/21 04:06:01;;;;;;;11.20;1.83;;;14.10;99.90;;;;;;4814370;29;20730;-89
2023/08/21 04:08:27;;;;;;;4.32;1.60;;;14.00;99.90;;;;;;4816083;29;20041;-88
2023/08/21 04:10:53;;;;;;;12.73;1.63;;;14.10;99.90;;;;;;4829539;29;20046;-88
2023/08/21 04:13:19;;;;;;;28.15;2.35;;;14.00;99.90;;;;;;4808711;29;20046;-88
2023/08/21 04:15:46;;;;;;;9.82;1.45;;;14.00;99.90;;;;;;4815133;29;20051;-87
2023/08/21 04:18:12;;;;;;;32.95;2.60;;;14.00;99.90;;;;;;4837551;29;20084;-88
2023/08/21 04:20:38;;;;;;;2.78;1.33;;;14.00;99.90;;;;;;4828785;29;20074;-88
2023/08/21 04:23:04;;;;;;;1.73;1.30;;;14.00;99.90;;;;;;4807358;29;20125;-89
2023/08/21 04:25:29;;;;;;;2.55;1.80;;;14.00;99.90;;;;;;4802048;29;20129;-89
2023/08/21 04:27:55;;;;;;;4.32;2.22;;;14.00;99.90;;;;;;4815138;29;20045;-88
2023/08/21 04:30:21;;;;;;;4.70;1.70;;;14.10;99.90;;;;;;4817091;29;20038;-89
2023/08/21 04:32:47;;;;;;;3.78;1.80;;;14.10;99.90;;;;;;4812985;29;20092;-88
2023/08/21 04:35:13;;;;;;;3.67;2.17;;;14.20;99.90;;;;;;4844561;29;20049;-88
2023/08/21 04:37:46;;;;;;;4.53;2.05;;;14.20;99.90;;;;;;4840509;29;20619;-88
2023/08/21 04:40:12;;;;;;;3.08;1.90;;;14.20;99.90;;;;;;4844634;29;20052;-88
2023/08/21 04:42:37;;;;;;;5.57;2.60;;;14.30;99.90;;;;;;4839132;29;20034;-89
2023/08/21 04:45:05;;;;;;;5.50;2.72;;;14.30;99.90;;;;;;4830011;29;20056;-88
2023/08/21 04:47:31;;;;;;;4.68;2.50;;;14.40;99.90;;;;;;4830366;29;20068;-88
2023/08/21 04:49:57;;;;;;;5.30;2.55;;;14.50;99.90;;;;;;4826944;29;20041;-89
2023/08/21 04:52:23;;;;;;;5.28;3.00;;;14.50;99.90;;;;;;4828991;29;20045;-89
2023/08/21 04:54:50;;;;;;;4.60;2.60;;;14.60;99.90;;;;;;4813889;29;20409;-88
2023/08/21 04:57:17;;;;;;;3.67;2.43;;;;;;;;;;4830625;29;20106;-87
2023/08/21 04:59:43;;;;;;;4.75;2.55;;;14.70;99.90;;;;;;4836573;29;20062;-88
2023/08/21 05:02:09;;;;;;;4.10;2.95;;;14.70;99.90;;;;;;4835233;29;20044;-88
2023/08/21 05:04:36;;;;;;;3.47;2.70;;;14.70;99.90;;;;;;4838085;29;20045;-89
2023/08/21 05:07:02;;;;;;;;;;;14.80;99.90;;;;;;4841220;29;20037;-88
2023/08/21 05:09:28;;;;;;;6.30;3.35;;;14.90;99.90;;;;;;4830223;29;19920;-88
2023/08/21 05:11:54;;;;;;;5.40;3.35;;;14.90;99.90;;;;;;4855252;29;20053;-88
2023/08/21 05:14:20;;;;;;;4.35;3.53;;;15.00;99.90;;;;;;4855479;29;20132;-86
2023/08/21 05:16:46;;;;;;;6.82;4.00;;;15.00;99.90;;;;;;4818719;29;20127;-88
2023/08/21 05:19:12;;;;;;;6.07;3.35;;;15.10;99.90;;;;;;4843824;29;20045;-88
2023/08/21 05:21:38;;;;;;;4.30;2.90;;;15.20;99.90;;;;;;4837383;29;20063;-87
2023/08/21 05:24:04;;;;;;;4.18;2.90;;;15.30;99.90;;;;;;4810583;29;20548;-87
2023/08/21 05:26:29;;;;;;;6.53;2.75;;;15.40;99.90;;;;;;4843462;29;20046;-87
2023/08/21 05:28:55;;;;;;;4.53;2.08;;;15.60;99.90;;;;;;4838939;29;20046;-87
2023/08/21 05:31:21;;;;;;;5.53;2.72;;;15.80;99.90;;;;;;4843874;29;20049;-86
2023/08/21 05:33:46;;;;;;;5.05;2.47;;;15.90;99.90;;;;;;4828139;29;20045;-87
2023/08/21 05:36:12;;;;;;;4.55;2.53;;;16.00;99.90;;;;;;4827774;29;20041;-85
2023/08/21 05:38:38;;;;;;;4.93;2.53;;;16.10;99.90;;;;;;4831528;29;20132;-86
2023/08/21 05:41:04;;;;;;;5.32;2.97;;;16.30;99.90;;;;;;4813411;29;20046;-85
2023/08/21 05:43:30;;;;;;;5.20;2.67;;;16.50;99.90;;;;;;4827986;29;20048;-86
2023/08/21 05:45:56;;;;;;;5.35;2.40;;;16.70;99.90;;;;;;4818804;29;20048;-85
2023/08/21 05:48:22;;;;;;;4.38;2.00;;;16.80;99.90;;;;;;4829633;29;20054;-84
2023/08/21 05:50:52;;;;;;;7.70;2.50;;;16.80;99.90;;;;;;4823599;29;20045;-85
2023/08/21 05:53:18;;;;;;;4.05;2.38;;;16.90;99.90;;;;;;4850094;29;20105;-83
2023/08/21 05:55:43;;;;;;;4.47;2.30;;;17.10;99.90;;;;;;4832839;29;20049;-84
2023/08/21 05:58:09;;;;;;;6.47;3.22;;;17.40;99.90;;;;;;4837429;29;20042;-86
2023/08/21 06:00:35;;;;;;;4.40;2.65;;;17.80;99.90;;;;;;4797434;29;20060;-84
2023/08/21 06:03:01;;;;;;;4.97;3.35;;;18.30;99.90;;;;;;4848085;29;20046;-84
2023/08/21 06:05:26;;;;;;;6.50;2.70;;;19.00;99.90;;;;;;4829014;29;20050;-82
2023/08/21 06:07:52;;;;;;;4.25;2.38;;;19.40;99.90;;;;;;4795550;29;20049;-83
2023/08/21 06:10:18;;;;;;;4.70;2.33;;;19.40;99.90;;;;;;4848697;29;20045;-85
2023/08/21 06:12:44;;;;;;;4.57;2.25;;;19.50;99.90;;;;;;4813080;29;20038;-83
2023/08/21 06:15:10;;;;;;;4.28;2.13;;;19.40;99.90;;;;;;4832676;29;20124;-83
2023/08/21 06:17:36;;;;;;;4.88;2.20;;;19.60;99.90;;;;;;4839450;29;20046;-84
2023/08/21 06:20:05;;;;;;;3.57;2.10;;;20.20;99.90;;;;;;4843853;29;20057;-84
2023/08/21 06:22:31;;;;;;;3.35;1.55;;;20.90;99.90;;;;;;4830720;29;20482;-83
2023/08/21 06:24:57;;;;;;;5.45;1.90;;;21.50;99.90;;;;;;4847100;29;20045;-82
2023/08/21 06:27:23;;;;;;;3.40;1.67;;;22.40;99.90;;;;;;4810960;29;20202;-82
2023/08/21 06:29:49;;;;;;;3.70;1.43;;;23.20;99.90;;;;;;4845240;29;20493;-83
2023/08/21 06:32:14;;;;;;;4.28;1.80;;;23.80;99.90;;;;;;4833820;29;20405;-83
2023/08/21 06:34:40;;;;;;;2.33;1.40;;;24.00;99.90;;;;;;4843633;29;20042;-83
2023/08/21 06:37:06;;;;;;;5.03;2.10;;;23.80;99.90;;;;;;4831620;29;20104;-84
2023/08/21 06:39:32;;;;;;;5.20;1.67;;;23.60;99.90;;;;;;4826604;29;20046;-82
2023/08/21 06:41:58;;;;;;;5.10;1.50;;;23.40;99.90;;;;;;4811768;29;20562;-83
2023/08/21 06:44:23;;;;;;;4.37;1.40;;;23.50;99.90;;;;;;4802844;29;20478;-82
2023/08/21 06:46:49;;;;;;;4.20;1.20;;;23.90;99.90;;;;;;4816838;29;20488;-82
2023/08/21 06:49:15;;;;;;;2.57;1.27;;;24.30;99.90;;;;;;4823553;29;20041;-82
2023/08/21 06:51:40;;;;;;;2.07;1.13;;;24.60;99.90;;;;;;4827481;29;20041;-82
2023/08/21 06:54:06;;;;;;;2.90;1.10;;;25.30;99.90;;;;;;4836261;29;20057;-83
2023/08/21 06:56:32;;;;;;;2.97;1.03;;;26.10;99.90;;;;;;4844956;29;20082;-86
2023/08/21 06:58:58;;;;;;;2.30;1.10;;;26.80;99.90;;;;;;4829468;29;20049;-84
2023/08/21 07:01:23;;;;;;;4.03;1.17;;;27.50;99.90;;;;;;4821307;29;20533;-83
2023/08/21 07:03:49;;;;;;;2.73;1.00;;;27.90;99.90;;;;;;4830630;29;20063;-82
2023/08/21 07:06:15;;;;;;;3.47;1.00;;;28.40;99.90;;;;;;4815273;29;20044;-83
2023/08/21 07:08:40;;;;;;;3.63;0.90;;;28.50;99.90;;;;;;4828037;29;20498;-84
2023/08/21 07:11:08;;;;;;;3.47;0.87;;;28.80;99.90;;;;;;4829856;29;20061;-83
2023/08/21 07:13:34;;;;;;;1.65;0.60;;;29.00;99.90;;;;;;4847558;29;20504;-84
2023/08/21 07:16:03;;;;;;;2.97;0.80;;;29.20;99.90;;;;;;4835654;29;20046;-86
2023/08/21 07:18:33;;;;;;;2.92;0.70;;;29.40;99.90;;;;;;4850186;29;20057;-86
2023/08/21 07:20:59;;;;;;;2.00;0.50;;;29.60;99.90;;;;;;4825273;29;20056;-84
2023/08/21 07:23:26;;;;;;;0.65;0.30;;;29.80;99.90;;;;;;4844142;29;20155;-86
2023/08/21 07:25:51;;;;;;;;;;;29.90;99.90;;;;;;4829554;29;20046;-85
2023/08/21 07:28:17;;;;;;;3.40;0.60;;;29.60;96.90;;;;;;4830674;29;20447;-83
2023/08/21 07:30:43;;;;;;;2.88;0.70;;;30.00;99.90;;;;;;4828539;29;20045;-84
2023/08/21 07:33:09;;;;;;;2.23;0.40;;;30.20;99.90;;;;;;4832488;29;20500;-85
2023/08/21 07:35:35;;;;;;;2.70;0.50;;;30.50;99.90;;;;;;4830883;29;20052;-84
2023/08/21 07:38:01;;;;;;;1.38;0.35;;;30.70;99.90;;;;;;4825966;29;20494;-85
2023/08/21 07:40:27;;;;;;;1.95;0.47;;;30.70;98.30;;;;;;4812028;29;20095;-91
2023/08/21 07:42:53;;;;;;;1.55;0.40;;;30.80;96.80;;;;;;4844255;29;20041;-84
2023/08/21 07:45:19;;;;;;;1.13;0.32;;;31.00;95.00;;;;;;4830838;29;20076;-83
2023/08/21 07:47:44;;;;;;;2.95;0.93;;;31.20;92.60;;;;;;4840722;29;20046;-85
2023/08/21 07:50:10;;;;;;;2.65;0.40;;;31.30;91.30;;;;;;4815348;29;20037;-83
2023/08/21 07:52:36;;;;;;;1.75;0.52;;;31.50;90.30;;;;;;4826848;29;20137;-84
2023/08/21 07:55:03;;;;;;;1.67;0.43;;;31.70;88.80;;;;;;4830289;29;20046;-82
2023/08/21 07:57:29;;;;;;;1.88;0.70;;;31.80;87.40;;;;;;4855705;29;20049;-85
2023/08/21 07:59:55;;;;;;;2.00;0.60;;;32.10;85.50;;;;;;4845455;29;20054;-83
2023/08/21 08:02:21;;;;;;;2.10;0.50;;;32.20;84.60;;;;;;4835944;29;20049;-89
2023/08/21 08:04:47;;;;;;;1.70;0.50;;;32.30;83.40;;;;;;4837127;29;20042;-83
2023/08/21 08:07:13;;;;;;;2.45;0.70;;;32.40;81.20;;;;;;4830285;29;20516;-82
2023/08/21 08:09:39;;;;;;;1.42;0.35;;;32.50;80.40;;;;;;4845356;29;20050;-85
2023/08/21 08:12:05;;;;;;;3.33;0.65;;;32.50;79.90;;;;;;4815177;29;20041;-87
2023/08/21 08:14:31;;;;;;;1.48;0.32;;;32.50;78.60;;;;;;4829035;29;20046;-83
2023/08/21 08:16:57;;;;;;;1.77;0.43;;;32.60;78.10;;;;;;4832667;29;20053;-82
2023/08/21 08:19:23;;;;;;;1.65;0.45;;;32.60;77.60;;;;;;4844582;29;20050;-86
2023/08/21 08:21:49;;;;;;;3.63;0.82;;;32.80;76.50;;;;;;4829166;29;20053;-83
2023/08/21 08:24:14;;;;;;;1.95;0.75;;;32.70;75.90;;;;;;4845096;29;20041;-87
2023/08/21 08:26:42;;;;;;;1.75;0.57;;;32.70;75.30;;;;;;4832762;29;20037;-83
2023/08/21 08:29:08;;;;;;;3.13;0.52;;;32.70;74.50;;;;;;4815148;29;20061;-85
2023/08/21 08:31:34;;;;;;;1.40;0.30;;;32.80;74.30;;;;;;4846816;29;20052;-82
2023/08/21 08:33:59;;;;;;;1.65;0.50;;;32.80;73.80;;;;;;4819744;29;20462;-83
2023/08/21 08:36:25;;;;;;;1.38;0.40;;;32.80;73.80;;;;;;4844956;29;20536;-82
2023/08/21 08:38:51;;;;;;;1.40;0.40;;;32.50;73.40;;;;;;4847138;29;20067;-86
2023/08/21 08:41:28;;;;;;;2.15;0.70;;;32.50;73.00;;;;;;4828907;29;20615;-84
2023/08/21 08:43:56;;;;;;;;;;;32.40;71.50;;;;;;4828029;29;20084;-84
2023/08/21 08:46:24;;;;;;;1.52;0.50;;;32.20;70.00;;;;;;4856651;29;19927;-84
2023/08/21 08:48:51;;;;;;;1.30;0.40;;;32.00;73.20;;;;;;4826087;29;20049;-84
2023/08/21 08:51:17;;;;;;;1.10;0.63;;;31.90;72.60;;;;;;4828413;29;20049;-85
2023/08/21 08:53:44;;;;;;;1.90;0.88;;;31.60;73.50;;;;;;4836708;29;20049;-83
2023/08/21 08:56:09;;;;;;;3.00;0.80;;;31.30;74.00;;;;;;4795154;29;20053;-82
2023/08/21 08:58:36;;;;;;;3.58;0.85;;;31.00;74.10;;;;;;4817210;29;20382;-84
2023/08/21 09:01:01;;;;;;;2.10;0.52;;;30.80;75.00;;;;;;4840935;29;20045;-84
2023/08/21 09:03:29;;;;;;;5.15;0.60;;;30.60;75.50;;;;;;4843508;29;20045;-84
2023/08/21 09:05:55;;;;;;;2.85;0.60;;;30.30;75.60;;;;;;4818101;29;20044;-83
2023/08/21 09:08:20;;;;;;;1.73;0.50;;;29.90;76.20;;;;;;4818235;29;20046;-84
2023/08/21 09:10:46;;;;;;;1.63;0.60;;;29.40;77.10;;;;;;4807992;29;20106;-84
2023/08/21 09:13:15;;;;;;;2.53;0.63;;;29.00;78.20;;;;;;4830245;29;20049;-84
2023/08/21 09:15:43;;;;;;;1.42;0.60;;;28.70;79.50;;;;;;4824566;29;20458;-83
2023/08/21 09:18:10;;;;;;;6.25;0.75;;;28.40;80.40;;;;;;4825944;29;20082;-84
2023/08/21 09:20:37;;;;;;;3.33;0.68;;;28.10;79.90;;;;;;4827219;29;20082;-84
2023/08/21 09:23:04;;;;;;;2.25;0.73;;;27.80;79.90;;;;;;4828009;29;20037;-84
2023/08/21 09:25:40;;;;;;;2.10;0.65;;;27.60;82.50;;;;;;4827057;29;20045;-86
2023/08/21 09:28:09;;;;;;;1.10;0.50;;;27.50;83.50;;;;;;4832737;29;20041;-84
2023/08/21 09:30:48;;;;;;;0.95;0.38;;;27.50;85.00;;;;;;4844073;29;20045;-82
2023/08/21 09:33:16;;;;;;;2.03;0.40;;;27.40;82.90;;;;;;4828181;29;20049;-84
2023/08/21 09:35:43;;;;;;;1.52;0.52;;;27.30;86.20;;;;;;4821847;29;20052;-83
2023/08/21 09:38:10;;;;;;;2.92;0.60;;;27.20;87.10;;;;;;4844205;29;20041;-83
2023/08/21 09:40:39;;;;;;;;;;;27.30;88.90;;;;;;4812481;29;20496;-84
2023/08/21 09:43:04;;;;;;;2.22;0.40;;;27.30;91.60;;;;;;4844521;29;20492;-84
2023/08/21 09:45:30;;;;;;;2.10;0.60;;;27.40;88.90;;;;;;4813406;29;20131;-85
2023/08/21 09:47:58;;;;;;;2.03;0.50;;;27.40;87.00;;;;;;4813416;29;20045;-86
2023/08/21 09:50:24;;;;;;;2.83;0.40;;;27.40;86.10;;;;;;4812599;29;20157;-85
2023/08/21 09:52:51;;;;;;;;;;;27.20;85.00;;;;;;4819520;29;20057;-87
2023/08/21 09:55:17;;;;;;;3.28;0.65;;;27.20;90.40;;;;;;4837980;29;20403;-85
2023/08/21 09:57:44;;;;;;;1.60;0.40;;;27.30;90.00;;;;;;4829963;29;20137;-86
2023/08/21 10:00:20;;;;;;;1.67;0.65;;;27.30;88.50;;;;;;4840705;29;20081;-83
2023/08/21 10:02:51;;;;;;;4.13;0.77;;;27.30;89.80;;;;;;4834497;29;20074;-85
2023/08/21 10:05:17;;;;;;;2.03;0.45;;;27.30;91.20;;;;;;4846869;29;20520;-83
2023/08/21 10:07:47;;;;;;;;;;;27.50;90.70;;;;;;4834340;29;20041;-84
2023/08/21 10:10:13;;;;;;;1.23;0.40;;;27.60;89.50;;;;;;4831235;29;19924;-85
2023/08/21 10:12:39;;;;;;;2.13;0.70;;;27.70;88.50;;;;;;4843057;29;20046;-84
2023/08/21 10:15:08;;;;;;;1.80;0.40;;;27.80;87.00;;;;;;4814011;29;20091;-82
2023/08/21 10:17:35;;;;;;;1.42;0.60;;;27.80;87.60;;;;;;4835368;29;20565;-87
2023/08/21 10:20:09;;;;;;;1.42;0.40;;;27.90;86.70;;;;;;4848948;29;20052;-88
2023/08/21 10:23:01;;;;;;;2.67;0.65;;;28.00;84.40;;;;;;4845853;29;20120;-87
2023/08/21 10:25:27;;;;;;;1.58;0.40;;;28.10;83.50;;;;;;4840962;29;20045;-86
2023/08/21 10:27:58;;;;;;;1.20;0.40;;;28.20;83.80;;;;;;4840878;29;20401;-84
2023/08/21 10:30:28;;;;;;;1.38;0.32;;;28.30;82.90;;;;;;4830130;29;20494;-85
2023/08/21 10:32:55;;;;;;;1.52;0.50;;;28.30;84.10;;;;;;4846409;29;20044;-84
2023/08/21 10:35:29;;;;;;;1.20;0.40;;;28.30;84.70;;;;;;4816975;29;20046;-85
2023/08/21 10:38:17;;;;;;;1.10;0.35;;;28.30;84.40;;;;;;4843870;29;20085;-84
2023/08/21 10:41:07;;;;;;;3.20;0.50;;;28.40;82.30;;;;;;4819967;29;20049;-84
2023/08/21 10:43:46;;;;;;;3.25;0.70;;;28.40;83.60;;;;;;4824587;29;20332;-83
2023/08/21 10:46:12;;;;;;;1.38;0.47;;;28.40;82.60;;;;;;4826861;29;20041;-86
2023/08/21 10:48:39;;;;;;;1.92;0.40;;;28.40;83.30;;;;;;4827412;29;20658;-89
2023/08/21 10:51:07;;;;;;;0.88;0.30;;;28.50;82.90;;;;;;4812827;29;20651;-83
2023/08/21 10:53:34;;;;;;;1.98;0.40;;;28.40;82.70;;;;;;4845521;29;20053;-84
2023/08/21 10:56:04;;;;;;;2.97;0.40;;;28.40;83.70;;;;;;4816980;29;20053;-83
2023/08/21 10:58:56;;;;;;;2.50;0.30;;;28.30;82.40;;;;;;4833084;29;20045;-85
2023/08/21 11:01:22;;;;;;;1.70;0.40;;;28.30;79.90;;;;;;4827210;29;20657;-88
2023/08/21 11:03:51;;;;;;;1.07;0.27;;;28.40;82.00;;;;;;4844233;29;20046;-84
2023/08/21 11:06:19;;;;;;;3.03;0.40;;;28.40;81.10;;;;;;4844952;29;20050;-85
2023/08/21 11:08:44;;;;;;;1.67;0.60;;;28.60;82.20;;;;;;4830913;29;20050;-85
2023/08/21 11:11:10;;;;;;;1.67;0.40;;;28.60;83.50;;;;;;4814852;29;20063;-87
2023/08/21 11:13:36;;;;;;;1.27;0.40;;;28.70;84.00;;;;;;4827652;29;20053;-84
2023/08/21 11:16:04;;;;;;;2.07;0.80;;;28.80;82.40;;;;;;4828344;29;20041;-84
2023/08/21 11:18:40;;;;;;;1.27;0.50;;;28.80;82.10;;;;;;4845109;29;20496;-83
2023/08/21 11:21:11;;;;;;;1.45;0.40;;;28.80;80.70;;;;;;4826223;29;20045;-84
2023/08/21 11:23:42;;;;;;;1.70;0.50;;;28.80;81.40;;;;;;4826025;29;20038;-81
2023/08/21 11:26:11;;;;;;;1.50;0.40;;;28.90;80.90;;;;;;4832378;29;20102;-84
2023/08/21 11:28:38;;;;;;;1.42;0.43;;;28.90;80.20;;;;;;4830090;29;20049;-82
2023/08/21 11:31:05;;;;;;;1.85;0.57;;;28.70;80.00;;;;;;4830295;29;20124;-84
2023/08/21 11:33:32;;;;;;;2.83;0.55;;;28.60;80.70;;;;;;4829826;29;20072;-84
2023/08/21 11:35:59;;;;;;;;;;;28.30;80.10;;;;;;4819713;29;20055;-83
2023/08/21 11:38:26;;;;;;;1.55;0.50;;;27.80;78.80;;;;;;4840034;29;19946;-84
2023/08/21 11:41:00;;;;;;;2.53;0.60;;;27.70;81.50;;;;;;4829306;29;20509;-84
2023/08/21 11:43:35;;;;;;;1.63;0.50;;;27.70;83.10;;;;;;4831760;29;20405;-84
2023/08/21 11:46:05;;;;;;;1.65;0.50;;;27.60;83.70;;;;;;4846176;29;20077;-84
2023/08/21 11:48:31;;;;;;;1.30;0.50;;;27.40;83.40;;;;;;4829035;29;20050;-84
2023/08/21 11:50:57;;;;;;;1.10;0.40;;;27.40;84.20;;;;;;4833466;29;20493;-82
2023/08/21 11:53:38;;;;;;;1.65;0.43;;;27.50;85.10;;;;;;4825597;29;20566;-84
2023/08/21 11:56:10;;;;;;;1.25;0.40;;;27.70;86.20;;;;;;4853196;29;20053;-83
2023/08/21 11:58:48;;;;;;;1.35;0.50;;;27.80;83.90;;;;;;4848560;29;20413;-84
2023/08/21 12:01:21;;;;;;;2.13;0.32;;;27.60;84.00;;;;;;4830382;29;20058;-84
2023/08/21 12:03:54;;;;;;;3.13;0.50;;;27.50;83.90;;;;;;4864205;29;20498;-84
2023/08/21 12:06:21;;;;;;;1.60;0.55;;;27.40;85.60;;;;;;4830773;29;20037;-84
2023/08/21 12:08:47;;;;;;;2.05;0.47;;;27.20;85.10;;;;;;4829896;29;20077;-84
2023/08/21 12:11:12;;;;;;;2.47;0.60;;;27.00;85.80;;;;;;4832265;29;20092;-84
2023/08/21 12:13:38;;;;;;;3.37;0.70;;;26.70;86.30;;;;;;4847430;29;20041;-84
2023/08/21 12:16:04;;;;;;;2.10;0.50;;;26.70;87.60;;;;;;4845826;29;20054;-85
2023/08/21 12:18:30;;;;;;;2.05;0.50;;;26.70;88.90;;;;;;4831876;29;20374;-85
2023/08/21 12:20:56;;;;;;;1.95;0.60;;;26.80;89.40;;;;;;4833051;29;20049;-83
2023/08/21 12:23:22;;;;;;;1.70;0.50;;;26.90;91.20;;;;;;4844271;29;20046;-86
2023/08/21 12:25:47;;;;;;;4.50;0.40;;;27.00;89.90;;;;;;4843869;29;20041;-85
2023/08/21 12:28:13;;;;;;;1.23;0.37;;;26.90;88.40;;;;;;4809912;29;20081;-85
2023/08/21 12:30:39;;;;;;;0.90;0.50;;;26.80;87.70;;;;;;4836475;29;20093;-86
2023/08/21 12:33:05;;;;;;;2.57;0.30;;;26.80;88.50;;;;;;4824321;29;20049;-85
2023/08/21 12:35:30;;;;;;;3.37;1.37;;;26.80;90.50;;;;;;4855722;29;20516;-84
2023/08/21 12:37:58;;;;;;;2.33;0.60;;;26.70;92.00;;;;;;4828700;29;20049;-85
2023/08/21 12:40:24;;;;;;;2.38;0.50;;;26.60;91.00;;;;;;4832845;29;20162;-84
2023/08/21 12:42:50;;;;;;;1.95;0.70;;;26.40;90.40;;;;;;4835609;29;20132;-85
2023/08/21 12:45:16;;;;;;;2.17;0.50;;;26.20;92.30;;;;;;4846422;29;20544;-86
2023/08/21 12:47:42;;;;;;;1.58;0.55;;;26.10;96.60;;;;;;4834923;29;20037;-85